sensor_id;sensor_type;location;lat;lon;timestamp;P1;durP1;ratioP1;P2;durP2;ratioP2
39222;SDS011;24936;46.328;11.026;2023-02-21T00:02:34;0.25;;;0.22;;
39222;SDS011;24936;46.328;11.026;2023-02-21T00:05:18;0.28;;;0.28;;
39222;SDS011;24936;46.328;11.026;2023-02-21T00:08:01;0.43;;;0.43;;
39222;SDS011;24936;46.328;11.026;2023-02-21T00:10:45;1.45;;;0.50;;
39222;SDS011;24936;46.328;11.026;2023-02-21T00:13:34;5.43;;;1.38;;
39222;SDS011;24936;46.328;11.026;2023-02-21T00:16:19;0.52;;;0.52;;
39222;SDS011;24936;46.328;11.026;2023-02-21T00:19:03;0.77;;;0.45;;
39222;SDS011;24936;46.328;11.026;2023-02-21T00:21:47;0.60;;;0.32;;
39222;SDS011;24936;46.328;11.026;2023-02-21T00:24:31;0.40;;;0.40;;
39222;SDS011;24936;46.328;11.026;2023-02-21T00:27:15;1.70;;;0.52;;
39222;SDS011;24936;46.328;11.026;2023-02-21T00:29:59;1.60;;;0.57;;
39222;SDS011;24936;46.328;11.026;2023-02-21T00:32:43;0.40;;;0.40;;
39222;SDS011;24936;46.328;11.026;2023-02-21T00:35:27;0.32;;;0.32;;
39222;SDS011;24936;46.328;11.026;2023-02-21T00:38:11;1.20;;;0.50;;
39222;SDS011;24936;46.328;11.026;2023-02-21T00:40:55;0.50;;;0.50;;
39222;SDS011;24936;46.328;11.026;2023-02-21T00:43:39;0.55;;;0.20;;
39222;SDS011;24936;46.328;11.026;2023-02-21T00:46:23;0.25;;;0.25;;
39222;SDS011;24936;46.328;11.026;2023-02-21T00:49:07;0.30;;;0.28;;
39222;SDS011;24936;46.328;11.026;2023-02-21T00:51:51;0.20;;;0.20;;
39222;SDS011;24936;46.328;11.026;2023-02-21T00:54:35;0.20;;;0.20;;
39222;SDS011;24936;46.328;11.026;2023-02-21T00:57:20;0.08;;;0.08;;
39222;SDS011;24936;46.328;11.026;2023-02-21T01:00:04;1.30;;;1.08;;
39222;SDS011;24936;46.328;11.026;2023-02-21T01:02:50;0.75;;;0.28;;
39222;SDS011;24936;46.328;11.026;2023-02-21T01:05:34;0.98;;;0.63;;
39222;SDS011;24936;46.328;11.026;2023-02-21T01:08:18;1.33;;;1.15;;
39222;SDS011;24936;46.328;11.026;2023-02-21T01:11:02;0.20;;;0.20;;
39222;SDS011;24936;46.328;11.026;2023-02-21T01:13:46;0.55;;;0.55;;
39222;SDS011;24936;46.328;11.026;2023-02-21T01:16:30;0.93;;;0.20;;
39222;SDS011;24936;46.328;11.026;2023-02-21T01:19:16;0.75;;;0.60;;
39222;SDS011;24936;46.328;11.026;2023-02-21T01:22:01;2.28;;;0.93;;
39222;SDS011;24936;46.328;11.026;2023-02-21T01:24:49;5.88;;;0.25;;
39222;SDS011;24936;46.328;11.026;2023-02-21T01:27:34;0.93;;;0.52;;
39222;SDS011;24936;46.328;11.026;2023-02-21T01:30:17;0.85;;;0.52;;
39222;SDS011;24936;46.328;11.026;2023-02-21T01:33:01;1.65;;;0.60;;
39222;SDS011;24936;46.328;11.026;2023-02-21T01:35:45;0.08;;;0.08;;
39222;SDS011;24936;46.328;11.026;2023-02-21T01:38:31;2.85;;;0.95;;
39222;SDS011;24936;46.328;11.026;2023-02-21T01:41:16;0.65;;;0.47;;
39222;SDS011;24936;46.328;11.026;2023-02-21T01:44:01;0.40;;;0.28;;
39222;SDS011;24936;46.328;11.026;2023-02-21T01:46:50;0.30;;;0.22;;
39222;SDS011;24936;46.328;11.026;2023-02-21T01:49:35;0.35;;;0.30;;
39222;SDS011;24936;46.328;11.026;2023-02-21T01:52:22;0.20;;;0.20;;
39222;SDS011;24936;46.328;11.026;2023-02-21T01:55:08;0.95;;;0.70;;
39222;SDS011;24936;46.328;11.026;2023-02-21T01:57:53;0.55;;;0.40;;
39222;SDS011;24936;46.328;11.026;2023-02-21T02:00:38;1.02;;;0.70;;
39222;SDS011;24936;46.328;11.026;2023-02-21T02:03:24;1.05;;;0.55;;
39222;SDS011;24936;46.328;11.026;2023-02-21T02:06:11;0.30;;;0.30;;
39222;SDS011;24936;46.328;11.026;2023-02-21T02:08:57;0.50;;;0.40;;
39222;SDS011;24936;46.328;11.026;2023-02-21T02:20:05;0.30;;;0.25;;
39222;SDS011;24936;46.328;11.026;2023-02-21T02:22:38;0.70;;;0.45;;
39222;SDS011;24936;46.328;11.026;2023-02-21T02:25:16;1.55;;;1.10;;
39222;SDS011;24936;46.328;11.026;2023-02-21T02:30:46;0.20;;;0.20;;
39222;SDS011;24936;46.328;11.026;2023-02-21T02:34:20;0.32;;;0.30;;
39222;SDS011;24936;46.328;11.026;2023-02-21T02:36:37;0.00;;;0.00;;
39222;SDS011;24936;46.328;11.026;2023-02-21T02:42:06;0.15;;;0.15;;
39222;SDS011;24936;46.328;11.026;2023-02-21T02:44:47;0.38;;;0.38;;
39222;SDS011;24936;46.328;11.026;2023-02-21T02:47:18;0.75;;;0.30;;
39222;SDS011;24936;46.328;11.026;2023-02-21T02:49:54;0.38;;;0.30;;
39222;SDS011;24936;46.328;11.026;2023-02-21T02:52:23;0.05;;;0.05;;
39222;SDS011;24936;46.328;11.026;2023-02-21T02:54:58;0.00;;;0.00;;
39222;SDS011;24936;46.328;11.026;2023-02-21T02:57:26;0.52;;;0.50;;
39222;SDS011;24936;46.328;11.026;2023-02-21T02:59:58;0.43;;;0.43;;
39222;SDS011;24936;46.328;11.026;2023-02-21T03:02:28;0.40;;;0.40;;
39222;SDS011;24936;46.328;11.026;2023-02-21T03:07:43;0.10;;;0.10;;
39222;SDS011;24936;46.328;11.026;2023-02-21T03:18:10;0.13;;;0.13;;
39222;SDS011;24936;46.328;11.026;2023-02-21T03:20:57;1.55;;;1.02;;
39222;SDS011;24936;46.328;11.026;2023-02-21T03:23:26;4.13;;;1.17;;
39222;SDS011;24936;46.328;11.026;2023-02-21T03:25:55;0.45;;;0.30;;
39222;SDS011;24936;46.328;11.026;2023-02-21T03:28:25;0.10;;;0.10;;
39222;SDS011;24936;46.328;11.026;2023-02-21T03:30:52;0.00;;;0.00;;
39222;SDS011;24936;46.328;11.026;2023-02-21T03:33:20;0.30;;;0.25;;
39222;SDS011;24936;46.328;11.026;2023-02-21T03:35:46;0.30;;;0.22;;
39222;SDS011;24936;46.328;11.026;2023-02-21T03:38:12;0.30;;;0.22;;
39222;SDS011;24936;46.328;11.026;2023-02-21T03:40:38;0.83;;;0.43;;
39222;SDS011;24936;46.328;11.026;2023-02-21T03:43:03;0.10;;;0.10;;
39222;SDS011;24936;46.328;11.026;2023-02-21T03:45:31;0.10;;;0.10;;
39222;SDS011;24936;46.328;11.026;2023-02-21T03:47:57;0.00;;;0.00;;
39222;SDS011;24936;46.328;11.026;2023-02-21T03:53:44;0.40;;;0.30;;
39222;SDS011;24936;46.328;11.026;2023-02-21T03:56:09;0.40;;;0.30;;
39222;SDS011;24936;46.328;11.026;2023-02-21T03:58:35;0.20;;;0.20;;
39222;SDS011;24936;46.328;11.026;2023-02-21T04:01:00;1.60;;;0.53;;
39222;SDS011;24936;46.328;11.026;2023-02-21T04:03:26;3.10;;;0.80;;
39222;SDS011;24936;46.328;11.026;2023-02-21T04:05:51;0.67;;;0.37;;
39222;SDS011;24936;46.328;11.026;2023-02-21T04:08:16;1.13;;;0.40;;
39222;SDS011;24936;46.328;11.026;2023-02-21T04:10:42;0.20;;;0.10;;
39222;SDS011;24936;46.328;11.026;2023-02-21T04:13:07;0.20;;;0.20;;
39222;SDS011;24936;46.328;11.026;2023-02-21T04:15:34;0.17;;;0.17;;
39222;SDS011;24936;46.328;11.026;2023-02-21T04:17:59;0.90;;;0.53;;
39222;SDS011;24936;46.328;11.026;2023-02-21T04:20:25;2.60;;;0.57;;
39222;SDS011;24936;46.328;11.026;2023-02-21T04:22:50;0.20;;;0.20;;
39222;SDS011;24936;46.328;11.026;2023-02-21T04:25:15;0.10;;;0.10;;
39222;SDS011;24936;46.328;11.026;2023-02-21T04:27:41;0.40;;;0.40;;
39222;SDS011;24936;46.328;11.026;2023-02-21T04:30:06;0.13;;;0.13;;
39222;SDS011;24936;46.328;11.026;2023-02-21T04:32:32;0.17;;;0.17;;
39222;SDS011;24936;46.328;11.026;2023-02-21T04:34:58;0.63;;;0.57;;
39222;SDS011;24936;46.328;11.026;2023-02-21T04:37:23;4.13;;;0.37;;
39222;SDS011;24936;46.328;11.026;2023-02-21T04:39:48;3.30;;;1.27;;
39222;SDS011;24936;46.328;11.026;2023-02-21T04:42:14;0.43;;;0.43;;
39222;SDS011;24936;46.328;11.026;2023-02-21T04:44:40;0.20;;;0.20;;
39222;SDS011;24936;46.328;11.026;2023-02-21T04:47:05;0.87;;;0.47;;
39222;SDS011;24936;46.328;11.026;2023-02-21T04:49:30;0.63;;;0.40;;
39222;SDS011;24936;46.328;11.026;2023-02-21T04:51:56;0.17;;;0.17;;
39222;SDS011;24936;46.328;11.026;2023-02-21T04:54:21;0.00;;;0.00;;
39222;SDS011;24936;46.328;11.026;2023-02-21T04:56:46;1.10;;;0.93;;
39222;SDS011;24936;46.328;11.026;2023-02-21T04:59:12;0.40;;;0.40;;
39222;SDS011;24936;46.328;11.026;2023-02-21T05:01:37;0.97;;;0.57;;
39222;SDS011;24936;46.328;11.026;2023-02-21T05:04:03;0.33;;;0.30;;
39222;SDS011;24936;46.328;11.026;2023-02-21T05:06:29;0.50;;;0.40;;
39222;SDS011;24936;46.328;11.026;2023-02-21T05:08:55;0.08;;;0.08;;
39222;SDS011;24936;46.328;11.026;2023-02-21T05:11:22;0.10;;;0.10;;
39222;SDS011;24936;46.328;11.026;2023-02-21T05:13:47;1.85;;;1.17;;
39222;SDS011;24936;46.328;11.026;2023-02-21T05:16:14;0.50;;;0.38;;
39222;SDS011;24936;46.328;11.026;2023-02-21T05:18:41;0.10;;;0.10;;
39222;SDS011;24936;46.328;11.026;2023-02-21T05:23:33;0.40;;;0.40;;
39222;SDS011;24936;46.328;11.026;2023-02-21T05:28:26;0.08;;;0.08;;
39222;SDS011;24936;46.328;11.026;2023-02-21T05:30:52;1.20;;;0.55;;
39222;SDS011;24936;46.328;11.026;2023-02-21T05:33:17;0.50;;;0.40;;
39222;SDS011;24936;46.328;11.026;2023-02-21T05:35:42;0.50;;;0.40;;
39222;SDS011;24936;46.328;11.026;2023-02-21T05:38:10;1.60;;;0.38;;
39222;SDS011;24936;46.328;11.026;2023-02-21T05:40:36;0.40;;;0.37;;
39222;SDS011;24936;46.328;11.026;2023-02-21T05:43:01;2.27;;;0.70;;
39222;SDS011;24936;46.328;11.026;2023-02-21T05:45:26;0.03;;;0.03;;
39222;SDS011;24936;46.328;11.026;2023-02-21T05:47:52;0.30;;;0.20;;
39222;SDS011;24936;46.328;11.026;2023-02-21T05:50:22;0.30;;;0.30;;
39222;SDS011;24936;46.328;11.026;2023-02-21T05:52:47;0.47;;;0.20;;
39222;SDS011;24936;46.328;11.026;2023-02-21T05:55:13;0.10;;;0.10;;
39222;SDS011;24936;46.328;11.026;2023-02-21T05:57:38;0.00;;;0.00;;
39222;SDS011;24936;46.328;11.026;2023-02-21T06:00:04;0.07;;;0.07;;
39222;SDS011;24936;46.328;11.026;2023-02-21T06:02:30;12.43;;;1.10;;
39222;SDS011;24936;46.328;11.026;2023-02-21T06:04:55;0.60;;;0.50;;
39222;SDS011;24936;46.328;11.026;2023-02-21T06:07:20;0.57;;;0.20;;
39222;SDS011;24936;46.328;11.026;2023-02-21T06:09:46;0.00;;;0.00;;
39222;SDS011;24936;46.328;11.026;2023-02-21T06:12:11;0.30;;;0.20;;
39222;SDS011;24936;46.328;11.026;2023-02-21T06:14:36;1.13;;;0.53;;
39222;SDS011;24936;46.328;11.026;2023-02-21T06:17:02;2.43;;;1.10;;
39222;SDS011;24936;46.328;11.026;2023-02-21T06:19:27;0.37;;;0.33;;
39222;SDS011;24936;46.328;11.026;2023-02-21T06:21:53;0.10;;;0.10;;
39222;SDS011;24936;46.328;11.026;2023-02-21T06:24:18;0.47;;;0.40;;
39222;SDS011;24936;46.328;11.026;2023-02-21T06:26:43;0.43;;;0.20;;
39222;SDS011;24936;46.328;11.026;2023-02-21T06:29:10;0.10;;;0.10;;
39222;SDS011;24936;46.328;11.026;2023-02-21T06:31:35;1.35;;;0.25;;
39222;SDS011;24936;46.328;11.026;2023-02-21T06:34:01;0.30;;;0.30;;
39222;SDS011;24936;46.328;11.026;2023-02-21T06:36:27;1.65;;;1.10;;
39222;SDS011;24936;46.328;11.026;2023-02-21T06:38:54;0.40;;;0.32;;
39222;SDS011;24936;46.328;11.026;2023-02-21T06:41:22;1.02;;;0.85;;
39222;SDS011;24936;46.328;11.026;2023-02-21T06:43:51;0.30;;;0.30;;
39222;SDS011;24936;46.328;11.026;2023-02-21T06:46:18;0.45;;;0.38;;
39222;SDS011;24936;46.328;11.026;2023-02-21T06:48:45;0.00;;;0.00;;
39222;SDS011;24936;46.328;11.026;2023-02-21T06:51:11;0.33;;;0.30;;
39222;SDS011;24936;46.328;11.026;2023-02-21T06:53:38;3.03;;;1.63;;
39222;SDS011;24936;46.328;11.026;2023-02-21T06:58:30;1.67;;;0.75;;
39222;SDS011;24936;46.328;11.026;2023-02-21T07:00:56;0.00;;;0.00;;
39222;SDS011;24936;46.328;11.026;2023-02-21T07:03:21;0.47;;;0.47;;
39222;SDS011;24936;46.328;11.026;2023-02-21T07:05:47;0.50;;;0.50;;
39222;SDS011;24936;46.328;11.026;2023-02-21T07:08:12;1.73;;;0.93;;
39222;SDS011;24936;46.328;11.026;2023-02-21T07:10:37;0.40;;;0.40;;
39222;SDS011;24936;46.328;11.026;2023-02-21T07:13:03;1.77;;;1.27;;
39222;SDS011;24936;46.328;11.026;2023-02-21T07:15:28;0.60;;;0.50;;
39222;SDS011;24936;46.328;11.026;2023-02-21T07:17:54;1.17;;;1.07;;
39222;SDS011;24936;46.328;11.026;2023-02-21T07:20:19;1.80;;;0.53;;
39222;SDS011;24936;46.328;11.026;2023-02-21T07:22:44;0.83;;;0.53;;
39222;SDS011;24936;46.328;11.026;2023-02-21T07:25:17;1.03;;;0.50;;
39222;SDS011;24936;46.328;11.026;2023-02-21T07:27:48;0.38;;;0.30;;
39222;SDS011;24936;46.328;11.026;2023-02-21T07:30:14;0.68;;;0.55;;
39222;SDS011;24936;46.328;11.026;2023-02-21T07:32:40;0.20;;;0.20;;
39222;SDS011;24936;46.328;11.026;2023-02-21T07:35:06;1.60;;;0.70;;
39222;SDS011;24936;46.328;11.026;2023-02-21T07:37:32;6.37;;;0.80;;
39222;SDS011;24936;46.328;11.026;2023-02-21T07:39:57;0.53;;;0.43;;
39222;SDS011;24936;46.328;11.026;2023-02-21T07:42:23;0.27;;;0.20;;
39222;SDS011;24936;46.328;11.026;2023-02-21T07:44:53;0.10;;;0.10;;
39222;SDS011;24936;46.328;11.026;2023-02-21T07:47:21;0.30;;;0.20;;
39222;SDS011;24936;46.328;11.026;2023-02-21T07:49:46;0.10;;;0.10;;
39222;SDS011;24936;46.328;11.026;2023-02-21T07:52:11;0.60;;;0.20;;
39222;SDS011;24936;46.328;11.026;2023-02-21T07:54:37;0.17;;;0.10;;
39222;SDS011;24936;46.328;11.026;2023-02-21T07:57:02;0.20;;;0.10;;
39222;SDS011;24936;46.328;11.026;2023-02-21T07:59:28;0.00;;;0.00;;
39222;SDS011;24936;46.328;11.026;2023-02-21T08:01:53;0.10;;;0.10;;
39222;SDS011;24936;46.328;11.026;2023-02-21T08:04:19;0.05;;;0.00;;
39222;SDS011;24936;46.328;11.026;2023-02-21T08:06:46;0.15;;;0.15;;
39222;SDS011;24936;46.328;11.026;2023-02-21T08:09:13;0.10;;;0.10;;
39222;SDS011;24936;46.328;11.026;2023-02-21T08:11:38;0.00;;;0.00;;
39222;SDS011;24936;46.328;11.026;2023-02-21T08:14:04;0.10;;;0.10;;
39222;SDS011;24936;46.328;11.026;2023-02-21T08:16:30;0.00;;;0.00;;
39222;SDS011;24936;46.328;11.026;2023-02-21T08:18:56;0.77;;;0.43;;
39222;SDS011;24936;46.328;11.026;2023-02-21T08:21:21;0.00;;;0.00;;
39222;SDS011;24936;46.328;11.026;2023-02-21T08:23:47;0.20;;;0.20;;
39222;SDS011;24936;46.328;11.026;2023-02-21T08:26:12;1.33;;;0.83;;
39222;SDS011;24936;46.328;11.026;2023-02-21T08:28:37;0.17;;;0.17;;
39222;SDS011;24936;46.328;11.026;2023-02-21T08:31:03;1.57;;;1.13;;
39222;SDS011;24936;46.328;11.026;2023-02-21T08:33:28;0.27;;;0.27;;
39222;SDS011;24936;46.328;11.026;2023-02-21T08:35:54;0.87;;;0.63;;
39222;SDS011;24936;46.328;11.026;2023-02-21T08:38:19;0.00;;;0.00;;
39222;SDS011;24936;46.328;11.026;2023-02-21T08:40:45;0.07;;;0.07;;
39222;SDS011;24936;46.328;11.026;2023-02-21T08:43:10;0.00;;;0.00;;
39222;SDS011;24936;46.328;11.026;2023-02-21T08:45:36;0.17;;;0.17;;
39222;SDS011;24936;46.328;11.026;2023-02-21T08:48:01;0.17;;;0.17;;
39222;SDS011;24936;46.328;11.026;2023-02-21T08:50:27;0.08;;;0.00;;
39222;SDS011;24936;46.328;11.026;2023-02-21T08:52:57;0.00;;;0.00;;
39222;SDS011;24936;46.328;11.026;2023-02-21T08:55:22;0.13;;;0.13;;
39222;SDS011;24936;46.328;11.026;2023-02-21T08:57:48;0.80;;;0.47;;
39222;SDS011;24936;46.328;11.026;2023-02-21T09:00:15;0.32;;;0.30;;
39222;SDS011;24936;46.328;11.026;2023-02-21T09:02:42;0.13;;;0.13;;
39222;SDS011;24936;46.328;11.026;2023-02-21T09:05:13;0.57;;;0.57;;
39222;SDS011;24936;46.328;11.026;2023-02-21T09:07:43;0.00;;;0.00;;
39222;SDS011;24936;46.328;11.026;2023-02-21T09:10:12;1.15;;;1.05;;
39222;SDS011;24936;46.328;11.026;2023-02-21T09:12:40;0.00;;;0.00;;
39222;SDS011;24936;46.328;11.026;2023-02-21T09:15:06;0.00;;;0.00;;
39222;SDS011;24936;46.328;11.026;2023-02-21T09:17:32;1.00;;;0.98;;
39222;SDS011;24936;46.328;11.026;2023-02-21T09:20:02;0.10;;;0.10;;
39222;SDS011;24936;46.328;11.026;2023-02-21T09:22:31;0.00;;;0.00;;
39222;SDS011;24936;46.328;11.026;2023-02-21T09:24:58;0.00;;;0.00;;
39222;SDS011;24936;46.328;11.026;2023-02-21T09:30:17;0.00;;;0.00;;
39222;SDS011;24936;46.328;11.026;2023-02-21T09:32:46;0.03;;;0.03;;
39222;SDS011;24936;46.328;11.026;2023-02-21T09:35:12;10.25;;;2.83;;
39222;SDS011;24936;46.328;11.026;2023-02-21T09:37:39;0.08;;;0.08;;
39222;SDS011;24936;46.328;11.026;2023-02-21T09:40:17;0.98;;;0.90;;
39222;SDS011;24936;46.328;11.026;2023-02-21T09:42:53;0.00;;;0.00;;
39222;SDS011;24936;46.328;11.026;2023-02-21T09:45:21;0.15;;;0.15;;
39222;SDS011;24936;46.328;11.026;2023-02-21T09:47:50;0.10;;;0.10;;
39222;SDS011;24936;46.328;11.026;2023-02-21T09:50:20;0.38;;;0.38;;
39222;SDS011;24936;46.328;11.026;2023-02-21T09:52:51;0.10;;;0.10;;
39222;SDS011;24936;46.328;11.026;2023-02-21T09:57:53;0.00;;;0.00;;
39222;SDS011;24936;46.328;11.026;2023-02-21T10:00:21;0.52;;;0.45;;
39222;SDS011;24936;46.328;11.026;2023-02-21T10:05:51;0.10;;;0.10;;
39222;SDS011;24936;46.328;11.026;2023-02-21T10:16:39;0.30;;;0.30;;
39222;SDS011;24936;46.328;11.026;2023-02-21T10:19:14;0.25;;;0.20;;
39222;SDS011;24936;46.328;11.026;2023-02-21T10:21:46;0.00;;;0.00;;
39222;SDS011;24936;46.328;11.026;2023-02-21T10:24:14;4.40;;;1.08;;
39222;SDS011;24936;46.328;11.026;2023-02-21T10:26:45;0.40;;;0.30;;
39222;SDS011;24936;46.328;11.026;2023-02-21T10:29:19;2.15;;;1.13;;
39222;SDS011;24936;46.328;11.026;2023-02-21T10:31:47;0.65;;;0.45;;
39222;SDS011;24936;46.328;11.026;2023-02-21T10:34:21;0.00;;;0.00;;
39222;SDS011;24936;46.328;11.026;2023-02-21T10:36:50;0.20;;;0.20;;
39222;SDS011;24936;46.328;11.026;2023-02-21T10:39:19;0.03;;;0.03;;
39222;SDS011;24936;46.328;11.026;2023-02-21T10:41:48;0.35;;;0.20;;
39222;SDS011;24936;46.328;11.026;2023-02-21T10:44:17;0.38;;;0.32;;
39222;SDS011;24936;46.328;11.026;2023-02-21T10:47:07;0.10;;;0.10;;
39222;SDS011;24936;46.328;11.026;2023-02-21T10:49:55;0.10;;;0.10;;
39222;SDS011;24936;46.328;11.026;2023-02-21T10:52:25;0.20;;;0.20;;
39222;SDS011;24936;46.328;11.026;2023-02-21T10:55:01;0.17;;;0.17;;
39222;SDS011;24936;46.328;11.026;2023-02-21T10:57:31;0.20;;;0.20;;
39222;SDS011;24936;46.328;11.026;2023-02-21T10:59:58;1.77;;;0.65;;
39222;SDS011;24936;46.328;11.026;2023-02-21T11:04:56;0.10;;;0.10;;
39222;SDS011;24936;46.328;11.026;2023-02-21T11:07:33;0.65;;;0.65;;
39222;SDS011;24936;46.328;11.026;2023-02-21T11:09:59;0.10;;;0.10;;
39222;SDS011;24936;46.328;11.026;2023-02-21T11:12:25;0.20;;;0.20;;
39222;SDS011;24936;46.328;11.026;2023-02-21T11:17:26;0.20;;;0.20;;
39222;SDS011;24936;46.328;11.026;2023-02-21T11:20:03;0.10;;;0.10;;
39222;SDS011;24936;46.328;11.026;2023-02-21T11:22:45;16.80;;;1.13;;
39222;SDS011;24936;46.328;11.026;2023-02-21T11:30:30;0.47;;;0.25;;
39222;SDS011;24936;46.328;11.026;2023-02-21T11:32:58;0.15;;;0.15;;
39222;SDS011;24936;46.328;11.026;2023-02-21T11:38:34;0.10;;;0.10;;
39222;SDS011;24936;46.328;11.026;2023-02-21T11:43:28;0.88;;;0.77;;
39222;SDS011;24936;46.328;11.026;2023-02-21T11:51:48;1.23;;;0.68;;
39222;SDS011;24936;46.328;11.026;2023-02-21T11:54:23;0.13;;;0.13;;
39222;SDS011;24936;46.328;11.026;2023-02-21T11:56:52;0.00;;;0.00;;
39222;SDS011;24936;46.328;11.026;2023-02-21T12:06:56;0.17;;;0.17;;
39222;SDS011;24936;46.328;11.026;2023-02-21T12:12:32;0.10;;;0.10;;
39222;SDS011;24936;46.328;11.026;2023-02-21T12:18:18;0.40;;;0.35;;
39222;SDS011;24936;46.328;11.026;2023-02-21T12:20:49;0.10;;;0.10;;
39222;SDS011;24936;46.328;11.026;2023-02-21T12:26:26;0.15;;;0.15;;
39222;SDS011;24936;46.328;11.026;2023-02-21T12:29:19;0.13;;;0.13;;
39222;SDS011;24936;46.328;11.026;2023-02-21T12:37:45;2.03;;;1.13;;
39222;SDS011;24936;46.328;11.026;2023-02-21T12:40:19;0.55;;;0.40;;
39222;SDS011;24936;46.328;11.026;2023-02-21T12:51:05;1.08;;;0.73;;
39222;SDS011;24936;46.328;11.026;2023-02-21T12:56:08;1.45;;;0.52;;
39222;SDS011;24936;46.328;11.026;2023-02-21T13:01:16;1.10;;;0.88;;
39222;SDS011;24936;46.328;11.026;2023-02-21T13:06:50;0.20;;;0.20;;
39222;SDS011;24936;46.328;11.026;2023-02-21T13:09:39;0.85;;;0.50;;
39222;SDS011;24936;46.328;11.026;2023-02-21T13:12:16;1.02;;;0.70;;
39222;SDS011;24936;46.328;11.026;2023-02-21T13:14:48;0.68;;;0.63;;
39222;SDS011;24936;46.328;11.026;2023-02-21T13:17:17;1.00;;;0.70;;
39222;SDS011;24936;46.328;11.026;2023-02-21T13:19:45;0.65;;;0.65;;
39222;SDS011;24936;46.328;11.026;2023-02-21T13:30:39;1.17;;;0.73;;
39222;SDS011;24936;46.328;11.026;2023-02-21T13:33:29;0.15;;;0.15;;
39222;SDS011;24936;46.328;11.026;2023-02-21T13:35:59;0.25;;;0.25;;
39222;SDS011;24936;46.328;11.026;2023-02-21T13:41:06;0.30;;;0.30;;
39222;SDS011;24936;46.328;11.026;2023-02-21T13:43:35;0.20;;;0.20;;
39222;SDS011;24936;46.328;11.026;2023-02-21T13:52:12;3.72;;;0.73;;
39222;SDS011;24936;46.328;11.026;2023-02-21T13:57:47;0.65;;;0.65;;
39222;SDS011;24936;46.328;11.026;2023-02-21T14:19:18;0.70;;;0.65;;
39222;SDS011;24936;46.328;11.026;2023-02-21T14:24:46;3.88;;;2.25;;
39222;SDS011;24936;46.328;11.026;2023-02-21T14:29:43;0.47;;;0.47;;
39222;SDS011;24936;46.328;11.026;2023-02-21T14:38:04;2.08;;;1.48;;
39222;SDS011;24936;46.328;11.026;2023-02-21T14:49:26;6.28;;;1.38;;
39222;SDS011;24936;46.328;11.026;2023-02-21T14:52:41;1.63;;;0.60;;
39222;SDS011;24936;46.328;11.026;2023-02-21T15:01:01;1.08;;;0.98;;
39222;SDS011;24936;46.328;11.026;2023-02-21T15:03:37;6.32;;;0.47;;
39222;SDS011;24936;46.328;11.026;2023-02-21T15:06:39;0.10;;;0.10;;
39222;SDS011;24936;46.328;11.026;2023-02-21T15:09:16;2.47;;;1.10;;
39222;SDS011;24936;46.328;11.026;2023-02-21T15:11:43;3.53;;;1.00;;
39222;SDS011;24936;46.328;11.026;2023-02-21T15:14:14;1.40;;;1.30;;
39222;SDS011;24936;46.328;11.026;2023-02-21T15:16:47;0.13;;;0.10;;
39222;SDS011;24936;46.328;11.026;2023-02-21T15:19:20;1.05;;;0.95;;
39222;SDS011;24936;46.328;11.026;2023-02-21T15:24:39;0.00;;;0.00;;
39222;SDS011;24936;46.328;11.026;2023-02-21T15:27:11;0.82;;;0.77;;
39222;SDS011;24936;46.328;11.026;2023-02-21T15:29:38;0.82;;;0.80;;
39222;SDS011;24936;46.328;11.026;2023-02-21T15:32:05;1.00;;;0.65;;
39222;SDS011;24936;46.328;11.026;2023-02-21T15:34:51;0.20;;;0.20;;
39222;SDS011;24936;46.328;11.026;2023-02-21T15:37:22;3.00;;;1.13;;
39222;SDS011;24936;46.328;11.026;2023-02-21T15:39:55;1.40;;;0.85;;
39222;SDS011;24936;46.328;11.026;2023-02-21T15:42:25;0.10;;;0.10;;
39222;SDS011;24936;46.328;11.026;2023-02-21T15:44:57;0.30;;;0.30;;
39222;SDS011;24936;46.328;11.026;2023-02-21T15:47:26;0.68;;;0.68;;
39222;SDS011;24936;46.328;11.026;2023-02-21T15:57:44;0.73;;;0.73;;
39222;SDS011;24936;46.328;11.026;2023-02-21T16:00:25;1.45;;;1.27;;
39222;SDS011;24936;46.328;11.026;2023-02-21T16:02:51;0.73;;;0.73;;
39222;SDS011;24936;46.328;11.026;2023-02-21T16:05:27;0.40;;;0.40;;
39222;SDS011;24936;46.328;11.026;2023-02-21T16:08:01;0.68;;;0.68;;
39222;SDS011;24936;46.328;11.026;2023-02-21T16:10:28;0.95;;;0.82;;
39222;SDS011;24936;46.328;11.026;2023-02-21T16:12:56;4.57;;;1.83;;
39222;SDS011;24936;46.328;11.026;2023-02-21T16:15:30;2.72;;;1.65;;
39222;SDS011;24936;46.328;11.026;2023-02-21T16:17:59;2.00;;;1.83;;
39222;SDS011;24936;46.328;11.026;2023-02-21T16:20:34;3.13;;;1.90;;
39222;SDS011;24936;46.328;11.026;2023-02-21T16:28:20;1.77;;;1.67;;
39222;SDS011;24936;46.328;11.026;2023-02-21T16:30:45;0.60;;;0.60;;
39222;SDS011;24936;46.328;11.026;2023-02-21T16:33:11;1.05;;;1.05;;
39222;SDS011;24936;46.328;11.026;2023-02-21T16:35:40;2.88;;;1.60;;
39222;SDS011;24936;46.328;11.026;2023-02-21T16:38:09;14.10;;;2.75;;
39222;SDS011;24936;46.328;11.026;2023-02-21T16:40:38;4.32;;;2.60;;
39222;SDS011;24936;46.328;11.026;2023-02-21T16:43:04;1.40;;;1.30;;
39222;SDS011;24936;46.328;11.026;2023-02-21T16:45:29;0.63;;;0.53;;
39222;SDS011;24936;46.328;11.026;2023-02-21T16:47:57;1.63;;;0.98;;
39222;SDS011;24936;46.328;11.026;2023-02-21T16:50:30;1.88;;;1.67;;
39222;SDS011;24936;46.328;11.026;2023-02-21T16:52:58;1.58;;;1.40;;
39222;SDS011;24936;46.328;11.026;2023-02-21T16:55:24;2.63;;;1.45;;
39222;SDS011;24936;46.328;11.026;2023-02-21T16:57:51;1.92;;;1.13;;
39222;SDS011;24936;46.328;11.026;2023-02-21T17:00:19;2.38;;;1.58;;
39222;SDS011;24936;46.328;11.026;2023-02-21T17:02:49;1.88;;;1.67;;
39222;SDS011;24936;46.328;11.026;2023-02-21T17:05:16;2.55;;;1.98;;
39222;SDS011;24936;46.328;11.026;2023-02-21T17:07:43;1.67;;;0.95;;
39222;SDS011;24936;46.328;11.026;2023-02-21T17:10:09;3.05;;;2.13;;
39222;SDS011;24936;46.328;11.026;2023-02-21T17:12:35;4.25;;;3.05;;
39222;SDS011;24936;46.328;11.026;2023-02-21T17:15:01;2.63;;;1.47;;
39222;SDS011;24936;46.328;11.026;2023-02-21T17:19:53;7.25;;;4.32;;
39222;SDS011;24936;46.328;11.026;2023-02-21T17:22:18;4.90;;;2.87;;
39222;SDS011;24936;46.328;11.026;2023-02-21T17:24:43;8.87;;;2.73;;
39222;SDS011;24936;46.328;11.026;2023-02-21T17:27:09;6.20;;;1.60;;
39222;SDS011;24936;46.328;11.026;2023-02-21T17:29:35;0.40;;;0.40;;
39222;SDS011;24936;46.328;11.026;2023-02-21T17:32:01;27.88;;;2.65;;
39222;SDS011;24936;46.328;11.026;2023-02-21T17:34:31;3.42;;;2.45;;
39222;SDS011;24936;46.328;11.026;2023-02-21T17:36:57;1.60;;;1.50;;
39222;SDS011;24936;46.328;11.026;2023-02-21T17:39:23;1.83;;;1.73;;
39222;SDS011;24936;46.328;11.026;2023-02-21T17:41:49;1.80;;;1.70;;
39222;SDS011;24936;46.328;11.026;2023-02-21T17:44:15;9.35;;;3.83;;
39222;SDS011;24936;46.328;11.026;2023-02-21T17:46:48;10.60;;;3.75;;
39222;SDS011;24936;46.328;11.026;2023-02-21T17:49:19;2.33;;;1.40;;
39222;SDS011;24936;46.328;11.026;2023-02-21T17:51:46;1.95;;;1.52;;
39222;SDS011;24936;46.328;11.026;2023-02-21T17:56:39;5.30;;;3.00;;
39222;SDS011;24936;46.328;11.026;2023-02-21T17:59:04;6.00;;;1.97;;
39222;SDS011;24936;46.328;11.026;2023-02-21T18:01:30;3.63;;;2.07;;
39222;SDS011;24936;46.328;11.026;2023-02-21T18:03:56;3.80;;;2.17;;
39222;SDS011;24936;46.328;11.026;2023-02-21T18:06:25;5.90;;;3.30;;
39222;SDS011;24936;46.328;11.026;2023-02-21T18:08:51;3.90;;;1.98;;
39222;SDS011;24936;46.328;11.026;2023-02-21T18:11:19;2.45;;;1.52;;
39222;SDS011;24936;46.328;11.026;2023-02-21T18:13:46;3.35;;;2.33;;
39222;SDS011;24936;46.328;11.026;2023-02-21T18:16:12;13.30;;;3.38;;